Disclaimer

Please do not use the information listed here in-flight or in-navigation, as they are not provided to us by the airports but are provided by volunteers, so they might be outdated.

Search


Regions


Airport information page

Radio informations:
AGANA TWR - 118.1 MHz
RAMP - 121.6 MHz
Ground (GND) - 121.9 MHz
Clearance delivery - 121.9 MHz
Automatic Terminal Information Service (ATIS) - 119.0 MHz
ASOS - SEEREMAR MHz
GUAM CERAP - 120.5 MHz
ADVSY SVC - SEEREMAR MHz
Approach/Departure (APP/DEP) - 118.7 MHz

Airport informations:
Latitude: 13° 29' 00.42" N
Longitude: 144° 47' 45.54" E
Elevation: 298 feet - 91 meters
Operating hours: N/A
Operating agency: U.S.CIVIL AIRPORT WHEREIN PERMIT COVERS USE BY TRANSIT MILITARY AIRCRAFT
Timezone: UTC+10
Fuel: Jet A1+, Jet A1 with icing inhibitor.

Runway information:
06R/24L - 10014 x 150 feet< - >3052 x 46 meters
06L/24R - 10015 x 150 feet< - >3053 x 46 meters

Recent METARs:
PGUM 162254Z 08012KT 10SM FEW017 FEW024 30/27 A2988 RMK AO2 SLP109 T03000272
PGUM 162254Z 08012KT 10SM FEW017 FEW024 30/27 A2988 RMK AO2 SLP109 T03000272
PGUM 162354Z 09012KT 10SM FEW015 31/28 A2988 RMK AO2 SLP109 60005 T03060278 10306 20261 50007

Airport on the map: